Alto, MI (49302)

2:59 PM EDT on March 25, 2017 (GMT -0400)
Flat land | | Change Station

Elev 840 ft 42.86 °N, 85.37 °W | Updated 28 seconds ago

Rain
Rain
39.7 °F
Feels Like 34 °F
N
8.1
Wind Variable Wind from ENE
Gusts 9.8 mph

Today
High -- | Low -- °F
--% Chance of Precip.
Yesterday
High -- | Low -- °F
Precip. -- in
Pressure 30.17 in
Visibility 7.0 miles
Clouds Mostly Cloudy 600 ft
Overcast 1600 ft
Windchill 34 °F
Dew Point 36 °F
Humidity 85%
Rainfall 0.37 in
Snow Depth Not available.
7:35 AM 7:59 PM
Waning Crescent, 7% visible
METAR KGRR 251853Z 07013KT 7SM -RA BKN006 OVC016 04/03 A3015 RMK AO2 LTG DSNT SE SLP217 P0009 T00440033 $
Pressure 30.17 in
Visibility 7.0 miles
Clouds Mostly Cloudy 600 ft
Overcast 1600 ft
Windchill 34 °F
Dew Point 36 °F
Humidity 85%
Rainfall 0.37 in
Snow Depth Not available.
7:35 AM 7:59 PM
Waning Crescent, 7% visible
METAR KGRR 251853Z 07013KT 7SM -RA BKN006 OVC016 04/03 A3015 RMK AO2 LTG DSNT SE SLP217 P0009 T00440033 $

Get Severe Weather Alerts

Thanks for signing up!

Be on the lookout for a verification email in your inbox.

You'll start receiving the daily forecast at 8 AM.

×

10-Day Weather Forecast

Almanac

Astronomy

Mar. 25, 2017 Rise Set
Actual Time
Civil Twilight
Nautical Twilight
Astronomical Twilight
Moon
Length of Visible Light
Length of Day
Tomorrow will be .
, % of the Moon is Illuminated

Today's Extremes

State Highs State Lows

Community

WunderPhotos

Upload Photos

1,962,540 photos uploaded!

WunderBlog® & News

Nearby

Air Quality

  Air Quality AQ Index Pollutant
Not available.

Snow Depth

Station Depth Elevation

Earthquake Activity

City Distance Mag. Time & Date
Minimum magnitude displayed is 2.5.

Earthquake Activity

City Distance Mag. Time & Date
Minimum magnitude displayed is 2.5.

Coastal Water Temperatures

Place Temperature

Stations

Nearby Weather Stations

Station Location Temp. Windchill Dew Point Humidity Wind Precip. Elev Updated Type
                   

Watches & Warnings

There are currently no watches in effect.